This is the latest recevied weather packets stored in our database for station/object SR2WXM. If no packets are shown the sender has not sent any weather packets the latest 10 day(s).
| Time | Temp. | Humidity | Pressure | Rain* | Wind** | Luminosity | Snow |
|---|---|---|---|---|---|---|---|
| 1777932903 | 15.56° C | 76% | 1009.8 hPa | 0 mm | - | - | - |
| 1777932004 | 15.56° C | 74% | 1009.8 hPa | 0 mm | - | - | - |
| 1777931103 | 16.67° C | 72% | 1009.8 hPa | 0 mm | - | - | - |
| 1777930203 | 16.67° C | 70% | 1009.8 hPa | 0 mm | - | - | - |
| 1777929301 | 16.67° C | 67% | 1009.8 hPa | 0 mm | - | - | - |
| 1777928403 | 17.78° C | 64% | 1009.4 hPa | 0 mm | - | - | - |
| 1777927502 | 15.56° C | 71% | 1009.4 hPa | 0 mm | - | - | - |
| 1777926603 | 15.56° C | 71% | 1009.4 hPa | 0 mm | - | - | - |
| 1777925703 | 15.56° C | 72% | 1009.4 hPa | 0 mm | - | - | - |
| 1777924803 | 15.56° C | 71% | 1009.4 hPa | 0 mm | - | - | - |
| 1777923903 | 15.56° C | 70% | 1009.4 hPa | 0 mm | - | - | - |
| 1777923003 | 15.56° C | 70% | 1009.4 hPa | 0 mm | - | - | - |
| 1777922103 | 15.56° C | 66% | 1009.4 hPa | 0 mm | - | - | - |
| 1777921202 | 15.56° C | 65% | 1009.4 hPa | 0 mm | - | - | - |
| 1777920302 | 16.67° C | 64% | 1009.1 hPa | 0 mm | - | - | - |
| 1777919403 | 18.89° C | 57% | 1009.1 hPa | 0 mm | - | - | - |
| 1777918504 | 20° C | 52% | 1009.1 hPa | 0 mm | - | - | - |
| 1777917603 | 20° C | 50% | 1009.1 hPa | 0 mm | - | - | - |
| 1777916703 | 20.56° C | 50% | 1009.1 hPa | 0 mm | - | - | - |
| 1777915802 | 20.56° C | 47% | 1009.1 hPa | 0 mm | - | - | - |
| 1777914902 | 20.56° C | 46% | 1009.1 hPa | 0 mm | - | - | - |
| 1777914001 | 20.56° C | 45% | 1009.1 hPa | 0 mm | - | - | - |
| 1777910403 | 22.78° C | 43% | 1009.1 hPa | 0 mm | - | - | - |
| 1777909501 | 22.78° C | 43% | 1009.1 hPa | 0 mm | - | - | - |
| 1777908603 | 22.78° C | 44% | 1009.1 hPa | 0 mm | - | - | - |
* Rain latest hour (hover to see other rain measurements)
** Current wind speed in m/s (hover to see current wind gust speed)